Time;durP1;ratioP1;P1;durP2;ratioP2;P2;SDS_P1;SDS_P2;PMS_P1;PMS_P2;Temp;Humidity;BMP_temperature;BMP_pressure;BME280_temperature;BME280_humidity;BME280_pressure;Samples;Min_cycle;Max_cycle;Signal;HPM_P1;HPM_P2
2022/04/09 00:00:07;;;;;;;1.90;1.70;;;2.80;99.90;;;;;;5052053;28;20055;-78
2022/04/09 00:02:33;;;;;;;1.38;1.27;;;2.80;99.90;;;;;;5052264;28;20036;-78
2022/04/09 00:04:59;;;;;;;1.52;1.08;;;2.80;99.90;;;;;;5051824;28;20032;-78
2022/04/09 00:07:25;;;;;;;1.30;1.20;;;2.80;99.90;;;;;;5051850;28;20384;-78
2022/04/09 00:09:50;;;;;;;2.72;1.50;;;2.80;99.90;;;;;;5051782;28;20029;-78
2022/04/09 00:12:16;;;;;;;1.80;1.10;;;2.80;99.90;;;;;;5051678;28;20056;-78
2022/04/09 00:14:42;;;;;;;1.55;1.30;;;2.80;99.90;;;;;;5051718;28;20029;-78
2022/04/09 00:17:09;;;;;;;1.40;1.30;;;2.80;99.90;;;;;;5051856;28;20113;-78
2022/04/09 00:19:36;;;;;;;3.60;1.38;;;2.80;99.90;;;;;;5051706;28;20025;-79
2022/04/09 00:22:02;;;;;;;1.92;1.33;;;2.80;99.90;;;;;;5051528;28;20498;-79
2022/04/09 00:24:28;;;;;;;1.60;1.50;;;2.80;99.90;;;;;;5051905;28;20074;-75
2022/04/09 00:26:53;;;;;;;3.65;1.42;;;2.80;99.90;;;;;;5050144;28;20477;-76
2022/04/09 00:29:19;;;;;;;1.50;1.40;;;2.80;99.90;;;;;;5051578;28;20017;-76
2022/04/09 00:31:45;;;;;;;2.85;1.42;;;2.80;99.90;;;;;;5051509;28;20040;-76
2022/04/09 00:34:10;;;;;;;1.42;1.23;;;2.80;99.90;;;;;;5053681;28;20388;-77
2022/04/09 00:36:36;;;;;;;1.30;1.20;;;2.80;99.90;;;;;;5055578;28;20029;-76
2022/04/09 00:39:02;;;;;;;1.27;1.15;;;2.80;99.90;;;;;;5053985;28;20468;-77
2022/04/09 00:41:28;;;;;;;4.47;1.38;;;2.90;99.90;;;;;;5055248;28;20017;-77
2022/04/09 00:43:53;;;;;;;2.05;1.00;;;2.80;99.90;;;;;;5055113;28;20029;-77
2022/04/09 00:46:19;;;;;;;3.83;1.15;;;2.80;99.90;;;;;;5055129;28;20021;-77
2022/04/09 00:48:45;;;;;;;3.53;1.20;;;2.80;99.90;;;;;;5055175;28;20029;-77
2022/04/09 00:51:11;;;;;;;1.10;1.00;;;2.90;99.90;;;;;;5054609;28;20060;-76
2022/04/09 00:53:41;;;;;;;1.25;0.80;;;2.90;99.90;;;;;;5055368;28;20079;-77
2022/04/09 00:56:20;;;;;;;;;;;2.80;99.90;;;;;;5055680;28;20029;-79
2022/04/09 00:58:54;;;;;;;1.20;0.93;;;2.80;99.90;;;;;;5055015;28;19909;-79
2022/04/09 01:01:21;;;;;;;1.27;1.08;;;2.70;99.90;;;;;;5055297;28;20162;-79
2022/04/09 01:03:49;;;;;;;1.15;0.90;;;2.70;99.90;;;;;;5054884;28;20078;-79
2022/04/09 01:06:15;;;;;;;0.90;0.90;;;2.70;99.90;;;;;;5055045;28;20215;-77
2022/04/09 01:08:41;;;;;;;1.35;1.10;;;2.70;99.90;;;;;;5054907;28;20112;-77
2022/04/09 01:11:07;;;;;;;1.25;1.05;;;2.70;99.90;;;;;;5054761;28;20032;-77
2022/04/09 01:13:35;;;;;;;0.85;0.85;;;2.70;99.90;;;;;;5054998;28;20111;-77
2022/04/09 01:16:00;;;;;;;1.45;1.02;;;2.80;99.90;;;;;;5054589;28;20029;-77
2022/04/09 01:18:26;;;;;;;1.08;1.00;;;2.70;99.90;;;;;;5054570;28;20025;-77
2022/04/09 01:20:56;;;;;;;1.25;1.15;;;2.70;99.90;;;;;;5054840;28;20621;-77
2022/04/09 01:23:21;;;;;;;0.95;0.95;;;2.80;99.90;;;;;;5054583;28;20167;-79
2022/04/09 01:25:47;;;;;;;1.38;1.10;;;2.80;99.90;;;;;;5054564;28;20504;-78
2022/04/09 01:28:13;;;;;;;1.70;1.10;;;2.80;99.90;;;;;;5054378;28;20032;-77
2022/04/09 01:30:40;;;;;;;0.80;0.80;;;2.80;99.90;;;;;;5054379;28;20392;-78
2022/04/09 01:33:06;;;;;;;2.05;1.00;;;2.80;99.90;;;;;;5054269;28;20361;-78
2022/04/09 01:35:31;;;;;;;1.10;1.10;;;2.80;99.90;;;;;;5054419;28;20025;-77
2022/04/09 01:37:57;;;;;;;0.98;0.98;;;2.70;99.90;;;;;;5054141;28;20157;-77
2022/04/09 01:40:23;;;;;;;1.15;1.05;;;2.80;99.90;;;;;;5054321;28;20060;-77
2022/04/09 01:42:48;;;;;;;1.60;1.15;;;2.80;99.90;;;;;;5054177;28;20025;-78
2022/04/09 01:45:14;;;;;;;3.17;1.20;;;2.70;99.90;;;;;;5053698;28;20100;-77
2022/04/09 01:47:42;;;;;;;1.10;1.00;;;2.70;99.90;;;;;;5054026;28;20025;-78
2022/04/09 01:50:10;;;;;;;1.02;0.98;;;2.80;99.90;;;;;;5054235;28;20025;-77
2022/04/09 01:52:36;;;;;;;1.25;1.10;;;2.80;99.90;;;;;;5053628;28;20508;-78
2022/04/09 01:55:02;;;;;;;1.65;1.20;;;2.70;99.90;;;;;;5053710;28;20063;-75
2022/04/09 01:57:27;;;;;;;1.67;1.10;;;2.80;99.90;;;;;;5054128;28;20439;-76
2022/04/09 01:59:53;;;;;;;1.30;0.93;;;2.80;99.90;;;;;;5054033;28;20108;-76
2022/04/09 02:02:19;;;;;;;1.00;0.90;;;2.80;99.90;;;;;;5052581;28;20471;-76
2022/04/09 02:04:44;;;;;;;0.98;0.98;;;2.70;99.90;;;;;;5052528;28;20031;-76
2022/04/09 02:07:10;;;;;;;0.77;0.77;;;2.70;99.90;;;;;;5053547;28;20021;-76
2022/04/09 02:09:36;;;;;;;1.45;0.90;;;2.60;99.90;;;;;;5053721;28;20028;-76
2022/04/09 02:12:02;;;;;;;1.35;0.90;;;2.60;99.90;;;;;;5053661;28;20049;-78
2022/04/09 02:14:27;;;;;;;1.10;1.00;;;2.60;99.90;;;;;;5053637;28;20471;-79
2022/04/09 02:16:53;;;;;;;1.10;1.00;;;2.60;99.90;;;;;;5053745;28;20025;-78
2022/04/09 02:19:19;;;;;;;1.08;1.02;;;2.50;99.90;;;;;;5053766;28;20017;-79
2022/04/09 02:21:45;;;;;;;0.90;0.90;;;2.60;99.90;;;;;;5053389;28;20056;-79
2022/04/09 02:55:40;;;;;;;1.55;1.05;;;2.50;99.90;;;;;;5051620;28;20121;-80
2022/04/09 02:58:06;;;;;;;1.20;1.10;;;2.50;99.90;;;;;;5052668;28;20040;-81
2022/04/09 03:00:32;;;;;;;1.45;1.15;;;2.50;99.90;;;;;;5052730;28;20021;-81
2022/04/09 03:02:58;;;;;;;2.35;1.02;;;2.50;99.90;;;;;;5052977;28;20017;-80
2022/04/09 03:39:03;;;;;;;2.20;0.80;;;2.30;99.90;;;;;;5213002;22;20053;-68
2022/04/09 03:41:29;;;;;;;1.63;1.10;;;2.30;99.90;;;;;;5012266;28;20576;-68
2022/04/09 03:43:55;;;;;;;2.45;1.08;;;2.30;99.90;;;;;;5012473;28;20021;-69
2022/04/09 03:46:20;;;;;;;0.90;0.90;;;2.30;99.90;;;;;;5012439;28;20547;-69
2022/04/09 03:48:46;;;;;;;1.60;1.17;;;2.30;99.90;;;;;;5012419;28;20169;-68
2022/04/09 03:51:12;;;;;;;1.10;0.93;;;2.40;99.90;;;;;;5012278;28;20034;-68
2022/04/09 03:53:38;;;;;;;1.23;1.10;;;2.40;99.90;;;;;;5012111;28;20041;-68
2022/04/09 03:56:05;;;;;;;2.30;1.00;;;2.30;99.90;;;;;;5012341;28;20029;-68
2022/04/09 03:58:31;;;;;;;0.88;0.88;;;2.30;99.90;;;;;;5012156;28;20543;-68
2022/04/09 04:00:57;;;;;;;1.10;1.08;;;2.30;99.90;;;;;;5012145;28;20495;-68
2022/04/09 04:03:25;;;;;;;1.88;1.20;;;2.30;99.90;;;;;;5012418;28;20034;-68
2022/04/09 04:05:51;;;;;;;3.25;1.25;;;2.30;99.90;;;;;;5012243;28;20030;-68
2022/04/09 04:08:17;;;;;;;2.38;1.10;;;2.30;99.90;;;;;;5014634;28;20045;-68
2022/04/09 04:10:43;;;;;;;1.15;1.05;;;2.30;99.90;;;;;;5016127;28;20109;-68
2022/04/09 04:13:08;;;;;;;1.20;1.10;;;2.30;99.90;;;;;;5016486;28;20113;-69
2022/04/09 04:15:34;;;;;;;0.90;0.90;;;2.30;99.90;;;;;;5016231;28;20060;-69
2022/04/09 04:18:00;;;;;;;1.25;0.98;;;2.30;99.90;;;;;;5016013;28;20037;-69
2022/04/09 04:20:26;;;;;;;1.38;1.00;;;2.30;99.90;;;;;;5016200;28;20029;-69
2022/04/09 04:22:53;;;;;;;1.60;1.20;;;2.30;99.90;;;;;;5015823;28;20061;-68
2022/04/09 04:25:19;;;;;;;0.90;0.90;;;2.30;99.90;;;;;;5016089;28;20065;-68
2022/04/09 04:27:47;;;;;;;1.17;1.10;;;2.30;99.90;;;;;;5015805;28;20065;-68
2022/04/09 04:30:13;;;;;;;1.50;0.98;;;2.30;99.90;;;;;;5015693;28;20543;-69
2022/04/09 04:32:40;;;;;;;1.58;0.95;;;2.30;99.90;;;;;;5015628;28;20060;-67
2022/04/09 04:35:06;;;;;;;1.48;0.80;;;2.20;99.90;;;;;;5015919;28;20021;-67
2022/04/09 04:37:46;;;;;;;2.17;1.17;;;2.30;99.90;;;;;;5015426;28;20068;-65
2022/04/09 04:40:13;;;;;;;0.70;0.70;;;2.30;99.90;;;;;;5015603;28;20064;-65
2022/04/09 04:42:39;;;;;;;1.42;0.93;;;2.50;99.90;;;;;;5007248;28;20026;-66
2022/04/09 04:45:05;;;;;;;1.17;1.10;;;3.70;99.90;;;;;;4995590;28;20031;-68
2022/04/09 04:47:32;;;;;;;1.00;0.90;;;3.50;99.90;;;;;;4993374;28;20053;-68
2022/04/09 04:50:02;;;;;;;1.65;0.90;;;3.10;99.90;;;;;;4983187;28;20041;-68
2022/04/09 04:52:29;;;;;;;2.53;1.20;;;2.80;99.90;;;;;;4985154;28;20121;-67
2022/04/09 04:54:55;;;;;;;1.27;1.00;;;2.70;99.90;;;;;;4985353;28;20022;-68
2022/04/09 04:57:20;;;;;;;1.77;1.10;;;2.50;99.90;;;;;;4986883;28;20373;-67
2022/04/09 04:59:46;;;;;;;1.23;1.13;;;2.40;99.90;;;;;;4986892;28;20073;-65
2022/04/09 05:02:12;;;;;;;2.63;1.10;;;2.40;99.90;;;;;;4984851;28;20053;-66
2022/04/09 05:04:38;;;;;;;2.45;1.30;;;2.30;99.90;;;;;;4986257;28;20355;-65
2022/04/09 05:07:04;;;;;;;1.60;1.08;;;2.20;99.90;;;;;;4985044;28;20078;-65
2022/04/09 05:09:30;;;;;;;0.90;0.90;;;2.20;99.90;;;;;;4988065;28;20056;-65
2022/04/09 05:11:56;;;;;;;1.17;1.08;;;2.20;99.90;;;;;;4986010;28;20482;-65
2022/04/09 05:14:21;;;;;;;2.25;1.55;;;2.20;99.90;;;;;;4985646;28;20023;-65
2022/04/09 05:16:48;;;;;;;2.38;1.20;;;2.20;99.90;;;;;;4984122;28;20042;-67
2022/04/09 05:19:13;;;;;;;1.60;1.30;;;2.10;99.90;;;;;;4989843;28;20027;-68
2022/04/09 05:21:39;;;;;;;1.55;1.30;;;2.10;99.90;;;;;;4994282;28;20038;-68
2022/04/09 05:24:05;;;;;;;2.55;1.30;;;2.10;99.90;;;;;;4993702;28;20089;-68
2022/04/09 05:26:31;;;;;;;1.40;1.27;;;2.00;99.90;;;;;;4994160;28;20497;-67
2022/04/09 05:28:57;;;;;;;1.45;1.33;;;2.00;99.90;;;;;;4994035;28;20026;-67
2022/04/09 05:31:27;;;;;;;1.98;1.17;;;2.10;99.90;;;;;;4992699;28;20047;-67
2022/04/09 05:33:56;;;;;;;1.40;1.30;;;2.10;99.90;;;;;;4993827;28;20029;-67
2022/04/09 05:36:23;;;;;;;1.20;1.05;;;2.00;99.90;;;;;;4991499;28;20038;-67
2022/04/09 05:38:49;;;;;;;2.17;1.27;;;2.10;99.90;;;;;;4990217;28;20043;-67
2022/04/09 05:41:15;;;;;;;1.33;1.17;;;2.10;99.90;;;;;;4994782;28;20034;-67
2022/04/09 05:43:41;;;;;;;2.30;1.23;;;2.10;99.90;;;;;;4994604;28;20528;-67
2022/04/09 05:46:06;;;;;;;1.65;1.27;;;2.20;99.90;;;;;;4994504;28;20022;-67
2022/04/09 05:48:32;;;;;;;1.50;1.15;;;2.30;99.90;;;;;;4994134;28;20053;-67
2022/04/09 05:50:58;;;;;;;2.45;1.30;;;2.20;99.90;;;;;;4994539;28;20022;-67
2022/04/09 05:53:24;;;;;;;2.88;1.20;;;2.20;99.90;;;;;;4994839;28;20034;-67
2022/04/09 05:55:49;;;;;;;1.40;1.23;;;2.30;99.90;;;;;;4994822;28;20026;-67
2022/04/09 05:58:15;;;;;;;2.28;1.17;;;2.30;99.90;;;;;;4994319;28;20026;-69
2022/04/09 06:00:41;;;;;;;1.70;1.05;;;2.30;99.90;;;;;;4994391;28;20030;-71
2022/04/09 06:03:06;;;;;;;1.35;1.20;;;2.30;99.90;;;;;;4994764;28;20386;-71
2022/04/09 06:05:32;;;;;;;1.95;1.25;;;2.40;99.90;;;;;;4994432;28;20050;-72
2022/04/09 06:07:58;;;;;;;2.80;1.20;;;2.40;99.90;;;;;;4994552;28;20024;-72
2022/04/09 06:10:24;;;;;;;1.40;1.30;;;2.50;99.90;;;;;;4994356;28;20035;-67
2022/04/09 06:12:49;;;;;;;2.25;1.52;;;3.00;99.90;;;;;;4994134;28;20026;-67
2022/04/09 06:15:15;;;;;;;1.23;1.00;;;3.40;99.90;;;;;;4994034;28;20433;-68
2022/04/09 06:17:41;;;;;;;1.80;1.20;;;3.40;99.90;;;;;;4994569;28;20026;-67
2022/04/09 06:20:07;;;;;;;3.92;1.25;;;3.20;99.90;;;;;;4993791;28;20635;-66
2022/04/09 06:22:33;;;;;;;1.80;1.20;;;3.00;99.90;;;;;;4994213;28;20030;-66
2022/04/09 06:24:59;;;;;;;2.10;1.20;;;2.90;99.90;;;;;;4993500;28;20540;-66
2022/04/09 06:27:25;;;;;;;1.58;1.27;;;3.00;99.90;;;;;;4994410;28;20022;-65
2022/04/09 06:29:51;;;;;;;1.42;1.17;;;3.10;99.90;;;;;;4976273;28;20061;-67
2022/04/09 06:32:17;;;;;;;2.80;1.40;;;3.30;99.90;;;;;;4992906;28;20097;-69
2022/04/09 06:34:42;;;;;;;1.30;1.20;;;3.30;99.90;;;;;;4993728;28;20046;-65
2022/04/09 06:37:08;;;;;;;2.38;1.40;;;3.30;99.90;;;;;;4991589;28;20022;-68
2022/04/09 06:39:34;;;;;;;1.85;1.10;;;3.30;99.90;;;;;;4992975;28;20551;-68
2022/04/09 06:42:00;;;;;;;5.50;1.30;;;3.30;99.90;;;;;;4992300;28;20060;-66
2022/04/09 06:44:25;;;;;;;2.17;1.20;;;3.20;99.90;;;;;;4992902;28;20026;-67
2022/04/09 06:46:52;;;;;;;2.95;1.30;;;3.40;99.90;;;;;;4991526;28;20516;-73
2022/04/09 06:49:17;;;;;;;1.60;1.30;;;3.40;99.90;;;;;;5006073;28;20167;-73
2022/04/09 06:51:44;;;;;;;3.78;1.70;;;3.50;99.90;;;;;;4996416;28;20530;-81
2022/04/09 06:54:10;;;;;;;4.72;2.20;;;3.50;99.90;;;;;;5012643;28;20103;-76
2022/04/09 06:56:37;;;;;;;6.10;2.25;;;3.60;99.90;;;;;;4991215;28;20394;-71
2022/04/09 06:59:04;;;;;;;3.05;1.73;;;3.60;99.90;;;;;;4992944;28;20065;-71
2022/04/09 07:01:30;;;;;;;2.58;2.15;;;3.60;99.90;;;;;;5008108;28;20026;-70
2022/04/09 07:03:56;;;;;;;3.13;2.10;;;3.60;99.90;;;;;;5009759;28;20393;-71
2022/04/09 07:06:22;;;;;;;2.00;1.90;;;3.70;99.90;;;;;;4998913;28;20069;-77
2022/04/09 07:08:48;;;;;;;2.47;1.80;;;3.70;99.90;;;;;;4997970;28;20054;-71
2022/04/09 07:11:15;;;;;;;5.85;2.00;;;3.70;99.90;;;;;;4999196;28;20048;-68
2022/04/09 07:13:41;;;;;;;3.83;1.90;;;3.70;99.90;;;;;;4985937;28;20034;-70
2022/04/09 07:16:07;;;;;;;2.00;1.80;;;3.70;99.90;;;;;;4973572;28;20014;-70
2022/04/09 07:18:32;;;;;;;4.38;1.90;;;3.70;99.90;;;;;;4973662;28;20022;-71
2022/04/09 07:20:59;;;;;;;2.10;1.90;;;3.70;99.90;;;;;;4973060;28;20381;-73
2022/04/09 07:23:24;;;;;;;5.43;1.67;;;3.70;99.90;;;;;;4973267;28;20035;-73
2022/04/09 07:25:50;;;;;;;2.38;1.90;;;3.70;99.90;;;;;;4973421;28;20027;-70
2022/04/09 07:28:16;;;;;;;3.13;1.35;;;3.70;99.90;;;;;;4973890;28;20027;-70
2022/04/09 07:30:43;;;;;;;2.58;1.65;;;3.70;99.90;;;;;;4973645;28;20023;-69
2022/04/09 07:33:09;;;;;;;4.65;1.40;;;3.70;99.90;;;;;;4973204;28;20038;-66
2022/04/09 07:35:35;;;;;;;2.00;1.48;;;3.80;99.90;;;;;;4973316;28;20058;-67
2022/04/09 07:38:01;;;;;;;1.65;1.25;;;3.80;99.90;;;;;;4972947;28;20498;-67
2022/04/09 07:40:28;;;;;;;3.50;1.95;;;3.80;99.90;;;;;;4973340;28;20023;-67
2022/04/09 07:42:55;;;;;;;1.60;1.50;;;3.70;99.90;;;;;;4982273;28;20106;-64
2022/04/09 07:45:21;;;;;;;3.95;1.60;;;3.70;99.90;;;;;;4991798;28;20026;-67
2022/04/09 07:47:55;;;;;;;2.80;2.05;;;3.70;99.90;;;;;;4991638;28;20026;-68
2022/04/09 07:50:22;;;;;;;1.60;1.50;;;3.80;99.90;;;;;;4992840;28;20022;-68
2022/04/09 07:52:49;;;;;;;1.83;1.50;;;3.80;99.90;;;;;;4991650;28;20046;-68
2022/04/09 07:55:16;;;;;;;2.13;1.50;;;3.90;99.90;;;;;;4982797;28;20041;-68
2022/04/09 07:57:43;;;;;;;1.92;1.70;;;4.00;99.90;;;;;;4978723;28;20051;-68
2022/04/09 08:00:09;;;;;;;4.50;1.80;;;4.00;99.90;;;;;;4983094;28;20115;-69
2022/04/09 08:02:35;;;;;;;1.77;1.40;;;4.00;99.90;;;;;;4980681;28;20700;-68
2022/04/09 08:05:01;;;;;;;3.20;1.50;;;4.00;99.90;;;;;;4973217;28;20030;-69
2022/04/09 08:07:27;;;;;;;4.65;1.85;;;4.00;99.90;;;;;;4955797;28;20517;-68
2022/04/09 08:09:53;;;;;;;7.20;1.70;;;4.00;99.90;;;;;;4972988;28;20027;-68
2022/04/09 08:12:18;;;;;;;3.92;1.70;;;4.00;99.90;;;;;;4972720;28;20042;-68
2022/04/09 08:14:45;;;;;;;2.05;1.83;;;4.00;99.90;;;;;;4972430;28;20069;-69
2022/04/09 08:17:11;;;;;;;2.47;1.50;;;4.00;99.90;;;;;;4972281;28;20086;-69
2022/04/09 08:19:36;;;;;;;2.60;1.48;;;4.10;99.90;;;;;;4973337;28;20027;-69
2022/04/09 08:22:04;;;;;;;2.88;1.38;;;4.00;99.90;;;;;;4972890;28;20545;-69
2022/04/09 08:24:30;;;;;;;2.80;1.60;;;4.00;99.90;;;;;;4973149;28;20026;-69
2022/04/09 08:26:55;;;;;;;12.05;3.38;;;4.00;99.90;;;;;;4972920;28;20409;-69
2022/04/09 08:29:21;;;;;;;2.30;1.63;;;4.60;99.90;;;;;;4972542;28;20098;-69
2022/04/09 08:31:47;;;;;;;5.43;2.50;;;4.90;99.90;;;;;;4973223;28;20038;-68
2022/04/09 08:34:20;;;;;;;4.93;1.48;;;4.70;99.90;;;;;;4972652;28;20066;-69
2022/04/09 08:36:46;;;;;;;19.02;6.18;;;4.80;99.90;;;;;;4973083;28;20046;-69
2022/04/09 08:39:12;;;;;;;4.95;2.00;;;4.60;99.90;;;;;;4972450;28;20047;-69
2022/04/09 08:41:42;;;;;;;1.90;1.33;;;4.60;99.90;;;;;;4972577;28;20038;-69
2022/04/09 08:44:08;;;;;;;4.68;1.98;;;4.50;99.90;;;;;;4981239;28;20027;-69
2022/04/09 08:46:35;;;;;;;1.40;1.30;;;4.40;99.90;;;;;;4981553;28;20135;-66
2022/04/09 08:49:05;;;;;;;2.40;1.40;;;4.40;99.90;;;;;;4982291;28;20434;-68
2022/04/09 08:51:31;;;;;;;2.30;1.50;;;4.40;99.90;;;;;;4992011;28;20030;-72
2022/04/09 08:54:04;;;;;;;2.63;1.40;;;4.50;99.90;;;;;;4987776;28;20778;-67
2022/04/09 08:56:33;;;;;;;2.40;1.40;;;4.60;99.90;;;;;;4990126;28;20027;-69
2022/04/09 08:59:00;;;;;;;1.48;1.00;;;4.80;99.90;;;;;;4995083;28;20030;-67
2022/04/09 09:01:27;;;;;;;2.70;1.17;;;4.80;99.90;;;;;;4994481;28;20018;-69
2022/04/09 09:03:53;;;;;;;3.08;1.40;;;4.90;99.90;;;;;;4986170;28;20381;-69
2022/04/09 09:06:40;;;;;;;5.10;1.70;;;4.90;99.90;;;;;;4985139;28;20034;-69
2022/04/09 09:09:07;;;;;;;3.92;1.35;;;4.90;99.90;;;;;;4974487;28;20110;-70
2022/04/09 09:11:51;;;;;;;1.60;1.08;;;4.90;99.90;;;;;;4958422;28;20106;-69
2022/04/09 09:14:30;;;;;;;1.23;0.90;;;5.10;99.90;;;;;;4975787;28;20056;-67
2022/04/09 09:17:00;;;;;;;3.90;1.10;;;5.10;99.90;;;;;;4975381;28;20716;-69
2022/04/09 09:19:45;;;;;;;1.77;1.08;;;5.10;99.90;;;;;;4975117;28;20121;-70
2022/04/09 09:22:11;;;;;;;1.58;1.05;;;5.10;99.90;;;;;;4975963;28;20386;-69
2022/04/09 09:24:37;;;;;;;3.20;1.10;;;4.80;99.90;;;;;;4975676;28;20019;-70
2022/04/09 09:27:04;;;;;;;3.63;1.00;;;4.80;99.90;;;;;;4958216;28;20027;-69
2022/04/09 09:29:30;;;;;;;1.25;1.10;;;4.90;99.90;;;;;;4975787;28;20035;-69
2022/04/09 09:32:01;;;;;;;1.50;1.08;;;5.00;99.90;;;;;;4958100;28;20045;-69
2022/04/09 09:34:28;;;;;;;;;;;5.10;99.90;;;;;;4988094;28;20010;-69
2022/04/09 09:36:54;;;;;;;2.75;1.50;;;5.10;99.90;;;;;;4994326;28;20333;-68
2022/04/09 09:39:22;;;;;;;5.03;1.17;;;5.20;99.90;;;;;;4990645;28;20061;-66
2022/04/09 09:41:53;;;;;;;2.20;1.00;;;5.10;99.90;;;;;;4991245;28;20034;-68
2022/04/09 09:44:23;;;;;;;1.08;0.95;;;5.10;99.90;;;;;;4977663;28;20429;-70
2022/04/09 09:46:50;;;;;;;;;;;5.10;99.90;;;;;;4975531;28;20098;-68
2022/04/09 09:49:17;;;;;;;5.88;1.27;;;5.30;99.90;;;;;;4975217;28;19910;-69
2022/04/09 09:51:43;;;;;;;2.97;1.38;;;5.40;99.90;;;;;;4974351;28;20042;-69
2022/04/09 09:54:11;;;;;;;1.70;0.98;;;5.20;99.90;;;;;;4975111;28;20031;-68
2022/04/09 09:56:40;;;;;;;1.70;0.90;;;5.10;99.90;;;;;;4975574;28;20054;-68
2022/04/09 09:59:07;;;;;;;3.97;1.23;;;5.00;99.90;;;;;;4975099;28;20027;-68
2022/04/09 10:01:47;;;;;;;3.70;1.17;;;5.00;99.90;;;;;;4975008;28;20491;-67
2022/04/09 10:04:13;;;;;;;1.15;0.90;;;5.10;99.90;;;;;;4975248;28;20073;-69
2022/04/09 10:06:42;;;;;;;4.20;1.52;;;5.20;99.90;;;;;;4981897;28;20453;-70
2022/04/09 10:09:08;;;;;;;2.83;1.00;;;5.20;99.90;;;;;;4994432;28;20379;-70
2022/04/09 10:11:36;;;;;;;2.10;1.10;;;5.20;99.90;;;;;;4993003;28;20041;-72
2022/04/09 10:14:03;;;;;;;2.35;1.05;;;6.20;99.90;;;;;;4994112;28;20115;-70
2022/04/09 10:16:33;;;;;;;2.78;1.15;;;6.20;99.90;;;;;;4994360;28;20053;-68
2022/04/09 10:19:01;;;;;;;2.35;0.90;;;5.90;99.90;;;;;;4980269;28;20023;-69
2022/04/09 10:21:29;;;;;;;1.77;1.08;;;5.80;99.90;;;;;;4983348;28;20034;-69
2022/04/09 10:24:00;;;;;;;1.80;0.95;;;5.70;99.90;;;;;;4994089;28;20022;-69
2022/04/09 10:26:28;;;;;;;2.15;1.35;;;5.50;99.90;;;;;;4976510;28;20493;-71
2022/04/09 10:29:07;;;;;;;1.65;1.00;;;5.30;99.90;;;;;;4993704;28;20043;-69
2022/04/09 10:31:48;;;;;;;1.88;1.10;;;5.20;99.90;;;;;;4993638;28;20027;-68
2022/04/09 10:34:16;;;;;;;1.50;1.20;;;5.20;99.90;;;;;;4993235;28;20398;-71
2022/04/09 10:36:45;;;;;;;1.45;0.85;;;5.20;99.90;;;;;;4993264;28;20109;-73
2022/04/09 10:39:29;;;;;;;3.13;1.20;;;5.20;99.90;;;;;;4984808;28;20387;-70
2022/04/09 10:41:56;;;;;;;2.28;1.00;;;5.10;99.90;;;;;;4974182;28;20036;-71
2022/04/09 10:44:43;;;;;;;1.15;1.00;;;5.20;99.90;;;;;;4973053;28;20029;-71
2022/04/09 10:47:16;;;;;;;2.17;1.00;;;5.10;99.90;;;;;;4974032;28;20054;-70
2022/04/09 10:50:02;;;;;;;3.30;1.40;;;5.20;99.90;;;;;;4973705;28;20034;-71
2022/04/09 10:52:34;;;;;;;2.88;1.63;;;5.20;99.90;;;;;;4973157;28;20463;-71
2022/04/09 10:55:20;;;;;;;1.88;1.20;;;5.20;99.90;;;;;;4973382;28;20383;-73
2022/04/09 10:57:47;;;;;;;1.75;1.15;;;5.30;99.90;;;;;;4973219;28;20058;-71
2022/04/09 11:00:31;;;;;;;2.20;1.15;;;5.30;99.90;;;;;;4973233;28;20073;-69
2022/04/09 11:03:30;;;;;;;1.73;1.05;;;5.60;99.90;;;;;;4973932;28;20515;-74
2022/04/09 11:06:34;;;;;;;3.83;1.40;;;6.10;99.90;;;;;;4973469;28;20029;-78
2022/04/09 11:09:03;;;;;;;3.47;1.52;;;7.60;99.90;;;;;;4973817;28;20474;-72
2022/04/09 11:11:28;;;;;;;3.45;1.15;;;8.10;99.90;;;;;;4973645;28;20402;-72
2022/04/09 11:13:54;;;;;;;1.45;0.90;;;7.30;99.90;;;;;;4973780;28;20035;-72
2022/04/09 11:16:20;;;;;;;2.20;0.70;;;6.70;99.90;;;;;;4973621;28;20030;-72
2022/04/09 11:18:47;;;;;;;0.70;0.70;;;6.50;99.90;;;;;;4973499;28;20491;-72
2022/04/09 11:21:14;;;;;;;1.13;0.70;;;6.20;99.90;;;;;;4973458;28;20442;-72
2022/04/09 11:23:39;;;;;;;1.17;0.70;;;6.10;99.90;;;;;;4973898;28;20387;-72
2022/04/09 11:26:05;;;;;;;1.40;0.95;;;6.00;99.90;;;;;;4975133;28;20033;-75
2022/04/09 11:28:41;;;;;;;1.30;0.90;;;6.00;99.90;;;;;;4973535;28;20061;-75
2022/04/09 11:31:07;;;;;;;1.13;0.88;;;6.00;99.90;;;;;;4971982;28;20500;-72
2022/04/09 11:33:32;;;;;;;0.73;0.70;;;7.00;99.90;;;;;;4974932;28;20031;-72
2022/04/09 11:36:02;;;;;;;2.15;0.70;;;6.70;99.90;;;;;;4973012;28;20103;-72
2022/04/09 11:38:28;;;;;;;2.55;0.82;;;6.30;99.90;;;;;;4973589;28;20043;-74
2022/04/09 11:40:55;;;;;;;5.03;0.80;;;6.00;99.90;;;;;;4972068;28;20105;-72
2022/04/09 11:43:22;;;;;;;1.98;1.02;;;5.80;99.90;;;;;;4972604;28;20033;-75
2022/04/09 11:45:48;;;;;;;0.82;0.70;;;5.70;99.90;;;;;;4973647;28;20027;-77
2022/04/09 11:48:20;;;;;;;1.15;0.73;;;5.50;99.90;;;;;;4973033;28;20031;-75
2022/04/09 11:50:47;;;;;;;0.90;0.75;;;5.30;99.90;;;;;;4972116;28;20023;-74
2022/04/09 11:53:13;;;;;;;1.30;0.70;;;5.20;99.90;;;;;;4973288;28;20039;-73
2022/04/09 11:55:44;;;;;;;0.70;0.70;;;5.20;99.90;;;;;;4974184;28;20019;-72
2022/04/09 11:58:14;;;;;;;2.17;1.00;;;5.20;99.90;;;;;;4983932;28;20121;-73
2022/04/09 12:00:42;;;;;;;0.90;0.80;;;5.20;99.90;;;;;;4973599;28;20037;-69
2022/04/09 12:03:09;;;;;;;1.40;0.75;;;5.20;99.90;;;;;;4954379;28;20475;-72
2022/04/09 12:05:37;;;;;;;1.98;1.00;;;5.20;99.90;;;;;;4972145;28;20030;-70
2022/04/09 12:08:05;;;;;;;1.60;0.88;;;5.20;99.90;;;;;;4972859;28;20022;-69
2022/04/09 12:10:31;;;;;;;1.60;1.00;;;5.20;99.90;;;;;;4972757;28;20030;-70
2022/04/09 12:13:02;;;;;;;1.10;1.00;;;5.10;99.90;;;;;;4972892;28;20034;-70
2022/04/09 12:15:35;;;;;;;0.80;0.80;;;5.00;99.90;;;;;;4972933;28;20019;-70
2022/04/09 12:18:06;;;;;;;1.27;0.95;;;5.00;99.90;;;;;;4973671;28;20082;-74
2022/04/09 12:20:43;;;;;;;1.52;0.93;;;5.00;99.90;;;;;;4978411;28;20081;-70
2022/04/09 12:23:08;;;;;;;3.95;1.10;;;4.90;99.90;;;;;;4981351;28;20967;-70
2022/04/09 12:25:34;;;;;;;1.95;1.00;;;4.90;99.90;;;;;;4980181;28;20040;-72
2022/04/09 12:28:00;;;;;;;2.42;1.10;;;5.00;99.90;;;;;;4974792;28;20052;-74
2022/04/09 12:30:45;;;;;;;1.58;0.90;;;5.00;99.90;;;;;;4994274;28;20470;-70
2022/04/09 12:33:12;;;;;;;0.95;0.85;;;5.00;99.90;;;;;;4988202;28;20046;-72
2022/04/09 12:35:38;;;;;;;1.95;1.00;;;5.00;99.90;;;;;;4993547;28;20105;-77
2022/04/09 12:38:04;;;;;;;2.05;0.90;;;5.00;99.90;;;;;;4983947;28;20046;-79
2022/04/09 12:40:32;;;;;;;3.92;0.80;;;4.90;99.90;;;;;;4976381;28;20033;-78
2022/04/09 12:43:01;;;;;;;1.67;1.02;;;5.00;99.90;;;;;;4976283;28;20077;-78
2022/04/09 12:45:28;;;;;;;3.22;1.08;;;4.90;99.90;;;;;;4959123;28;20027;-78
2022/04/09 12:48:05;;;;;;;1.10;1.00;;;4.90;99.90;;;;;;4976934;28;20426;-78
2022/04/09 12:50:35;;;;;;;1.00;0.80;;;4.90;99.90;;;;;;4976516;28;20058;-79
2022/04/09 12:53:03;;;;;;;0.80;0.80;;;5.00;99.90;;;;;;4976148;28;20081;-76
2022/04/09 12:55:32;;;;;;;3.25;0.88;;;4.90;99.90;;;;;;4985655;28;20054;-75
2022/04/09 12:58:00;;;;;;;2.05;0.98;;;4.90;99.90;;;;;;4995954;28;20030;-71
2022/04/09 13:00:31;;;;;;;1.67;0.90;;;4.80;99.90;;;;;;4990221;28;20065;-74
2022/04/09 13:02:57;;;;;;;1.35;1.00;;;4.80;99.90;;;;;;4994859;28;20370;-75
2022/04/09 13:05:23;;;;;;;2.00;1.13;;;4.70;99.90;;;;;;4994356;28;20038;-73
2022/04/09 13:07:49;;;;;;;1.40;0.90;;;4.80;99.90;;;;;;4994923;28;20557;-73
2022/04/09 13:10:15;;;;;;;2.25;0.98;;;4.80;99.90;;;;;;4995598;28;20121;-74
2022/04/09 13:12:41;;;;;;;1.70;0.90;;;4.80;99.90;;;;;;4993921;28;20139;-72
2022/04/09 13:15:08;;;;;;;2.15;0.95;;;4.80;99.90;;;;;;4955641;28;20030;-73
2022/04/09 13:17:35;;;;;;;0.73;0.73;;;4.90;99.90;;;;;;4982846;28;20045;-73
2022/04/09 13:20:08;;;;;;;0.85;0.82;;;4.90;99.90;;;;;;4992251;28;20033;-73
2022/04/09 13:22:34;;;;;;;1.70;1.08;;;5.00;99.90;;;;;;4978892;28;20035;-74
2022/04/09 13:25:00;;;;;;;0.65;0.65;;;5.00;99.90;;;;;;4985788;28;20063;-72
2022/04/09 13:27:26;;;;;;;0.88;0.88;;;5.00;99.90;;;;;;4994942;28;20069;-73
2022/04/09 13:29:52;;;;;;;0.70;0.70;;;4.90;99.90;;;;;;4988965;28;20024;-75
2022/04/09 13:32:18;;;;;;;1.67;1.00;;;4.80;99.90;;;;;;4991985;28;20427;-73
2022/04/09 13:34:45;;;;;;;1.77;1.45;;;4.80;99.90;;;;;;4994761;28;20046;-76
2022/04/09 13:37:12;;;;;;;2.50;0.95;;;4.80;99.90;;;;;;4994075;28;20044;-68
2022/04/09 13:39:37;;;;;;;7.65;1.15;;;4.80;99.90;;;;;;4994548;28;20112;-69
2022/04/09 13:42:04;;;;;;;0.90;0.90;;;4.80;99.90;;;;;;4994622;28;20067;-69
2022/04/09 13:44:29;;;;;;;1.52;0.80;;;4.90;99.90;;;;;;4994773;28;20031;-69
2022/04/09 13:46:55;;;;;;;1.17;0.80;;;4.90;99.90;;;;;;4990131;28;20040;-70
2022/04/09 13:49:22;;;;;;;2.00;1.15;;;4.90;99.90;;;;;;4975436;28;20033;-69
2022/04/09 13:51:48;;;;;;;0.98;0.90;;;4.90;99.90;;;;;;4957901;28;20434;-70
2022/04/09 13:54:14;;;;;;;3.20;1.00;;;4.90;99.90;;;;;;4975097;28;20117;-71
2022/04/09 13:56:39;;;;;;;2.22;0.80;;;4.90;99.90;;;;;;4975168;28;20023;-71
2022/04/09 13:59:05;;;;;;;4.60;1.10;;;4.80;99.90;;;;;;4975188;28;20394;-67
2022/04/09 14:01:31;;;;;;;1.10;1.00;;;4.80;99.90;;;;;;4975053;28;20050;-67
2022/04/09 14:03:58;;;;;;;1.10;0.80;;;4.80;99.90;;;;;;4975438;28;20041;-67